Time;durP1;ratioP1;P1;durP2;ratioP2;P2;SDS_P1;SDS_P2;PMS_P1;PMS_P2;Temp;Humidity;BMP_temperature;BMP_pressure;BME280_temperature;BME280_humidity;BME280_pressure;Samples;Min_cycle;Max_cycle;Signal;HPM_P1;HPM_P2
2023/12/12 00:00:30;;;;;;;3.23;1.10;;;8.50;99.00;;;;;;5050795;28;20561;-46
2023/12/12 00:02:58;;;;;;;5.70;1.50;;;8.50;99.00;;;;;;5050931;28;20844;-47
2023/12/12 00:05:26;;;;;;;3.80;1.20;;;8.50;99.00;;;;;;5058667;28;20496;-46
2023/12/12 00:07:55;;;;;;;2.70;1.47;;;8.50;99.00;;;;;;5048449;28;20454;-47
2023/12/12 00:10:23;;;;;;;2.43;1.03;;;8.50;99.00;;;;;;5051121;28;20528;-46
2023/12/12 00:12:53;;;;;;;3.67;1.52;;;8.50;99.00;;;;;;5049380;28;20534;-46
2023/12/12 00:15:21;;;;;;;2.83;1.50;;;8.50;99.00;;;;;;5051066;28;20224;-46
2023/12/12 00:17:49;;;;;;;3.97;1.30;;;8.50;99.00;;;;;;5052617;28;20482;-46
2023/12/12 00:20:17;;;;;;;3.63;1.23;;;8.50;99.00;;;;;;5058983;28;21007;-47
2023/12/12 00:22:45;;;;;;;4.27;1.30;;;8.50;98.90;;;;;;5050467;28;20451;-47
2023/12/12 00:25:13;;;;;;;2.70;1.27;;;8.50;98.90;;;;;;5049941;28;20516;-46
2023/12/12 00:27:41;;;;;;;3.10;1.37;;;8.50;99.00;;;;;;5053395;28;20548;-46
2023/12/12 00:30:12;;;;;;;3.40;2.20;;;8.50;99.00;;;;;;5056970;28;20524;-47
2023/12/12 00:32:40;;;;;;;2.60;1.27;;;8.50;99.00;;;;;;5057529;28;20813;-46
2023/12/12 00:35:08;;;;;;;2.40;1.10;;;8.50;99.00;;;;;;5055851;28;20501;-46
2023/12/12 00:37:36;;;;;;;3.07;1.30;;;8.40;98.90;;;;;;5059872;28;20446;-47
2023/12/12 00:40:06;;;;;;;2.27;1.30;;;8.50;98.90;;;;;;5056914;28;20471;-45
2023/12/12 00:42:37;;;;;;;4.00;1.53;;;8.50;98.90;;;;;;5051934;28;20530;-47
2023/12/12 00:45:06;;;;;;;1.55;0.93;;;8.50;99.00;;;;;;5051966;28;21123;-47
2023/12/12 00:47:36;;;;;;;2.25;1.15;;;8.50;99.00;;;;;;5058444;28;20276;-46
2023/12/12 00:50:05;;;;;;;2.95;1.45;;;8.40;98.90;;;;;;5049628;28;20303;-47
2023/12/12 00:52:33;;;;;;;3.87;1.50;;;8.50;99.00;;;;;;5050720;28;20220;-46
2023/12/12 00:55:01;;;;;;;3.60;1.27;;;8.50;99.00;;;;;;5055799;28;20479;-47
2023/12/12 00:57:32;;;;;;;3.80;1.47;;;8.40;98.90;;;;;;5061294;28;20438;-47
2023/12/12 01:00:01;;;;;;;2.43;1.00;;;8.40;99.00;;;;;;5054755;28;20471;-47
2023/12/12 01:02:29;;;;;;;2.83;1.03;;;8.40;98.90;;;;;;5054730;28;20455;-46
2023/12/12 01:05:01;;;;;;;3.27;1.23;;;8.50;99.00;;;;;;5054471;28;20456;-46
2023/12/12 01:07:30;;;;;;;1.57;1.10;;;8.50;99.00;;;;;;5054773;28;20463;-47
2023/12/12 01:09:58;;;;;;;2.80;1.27;;;8.40;99.00;;;;;;5058351;28;21029;-46
2023/12/12 01:12:28;;;;;;;3.67;1.23;;;8.50;99.00;;;;;;5056990;28;20851;-47
2023/12/12 01:14:58;;;;;;;4.80;1.57;;;8.40;99.00;;;;;;5057787;28;20228;-45
2023/12/12 01:17:26;;;;;;;2.50;1.42;;;8.40;99.00;;;;;;5051594;28;20426;-47
2023/12/12 01:19:54;;;;;;;2.60;1.10;;;8.40;99.00;;;;;;5054267;28;20566;-47
2023/12/12 01:22:26;;;;;;;2.70;1.37;;;8.50;99.00;;;;;;5057622;28;20442;-46
2023/12/12 01:24:57;;;;;;;1.73;1.00;;;8.40;99.00;;;;;;5057336;28;20462;-46
2023/12/12 01:27:26;;;;;;;3.03;1.23;;;8.40;99.00;;;;;;5050688;28;20960;-46
2023/12/12 01:29:55;;;;;;;2.43;1.23;;;8.40;99.00;;;;;;5050408;28;20463;-46
2023/12/12 01:32:23;;;;;;;3.00;1.10;;;8.40;99.00;;;;;;5053868;28;20427;-46
2023/12/12 01:34:51;;;;;;;2.50;0.93;;;8.40;99.00;;;;;;5057529;28;20475;-47
2023/12/12 01:37:19;;;;;;;1.90;1.07;;;8.40;98.90;;;;;;5061395;28;20426;-47
2023/12/12 01:39:49;;;;;;;4.73;1.53;;;8.40;98.90;;;;;;5057139;28;20475;-47
2023/12/12 01:42:17;;;;;;;2.00;1.10;;;8.40;98.90;;;;;;5059239;28;20472;-45
2023/12/12 01:44:45;;;;;;;3.70;1.50;;;8.40;98.90;;;;;;5058020;28;20519;-45
2023/12/12 01:47:13;;;;;;;2.50;1.43;;;8.40;98.90;;;;;;5058030;28;20432;-47
2023/12/12 01:49:41;;;;;;;3.20;1.43;;;8.40;98.90;;;;;;5056213;28;20475;-47
2023/12/12 01:52:10;;;;;;;2.47;1.03;;;8.50;98.90;;;;;;5058936;28;20505;-47
2023/12/12 01:54:42;;;;;;;2.30;1.20;;;8.50;99.00;;;;;;5058082;28;20983;-46
2023/12/12 01:57:14;;;;;;;2.83;1.20;;;8.40;98.90;;;;;;5055018;28;20447;-47
2023/12/12 01:59:43;;;;;;;3.20;1.23;;;8.40;99.00;;;;;;5054942;28;20469;-46
2023/12/12 02:02:16;;;;;;;2.50;1.13;;;8.50;99.00;;;;;;5055399;28;20933;-46
2023/12/12 02:04:45;;;;;;;3.83;1.70;;;8.40;99.00;;;;;;5057074;28;20559;-47
2023/12/12 02:07:17;;;;;;;2.07;1.03;;;8.50;99.00;;;;;;5064843;28;20532;-46
2023/12/12 02:09:45;;;;;;;2.80;1.30;;;8.40;99.00;;;;;;5053450;28;20459;-47
2023/12/12 02:12:14;;;;;;;1.50;0.70;;;8.40;99.00;;;;;;5054041;28;20447;-47
2023/12/12 02:14:43;;;;;;;1.60;1.07;;;8.50;99.10;;;;;;5053152;28;20486;-47
2023/12/12 02:17:11;;;;;;;3.42;1.23;;;8.40;99.00;;;;;;5066428;28;20882;-45
2023/12/12 02:19:39;;;;;;;1.90;1.07;;;8.40;99.10;;;;;;5057561;28;20216;-48
2023/12/12 02:22:09;;;;;;;3.23;1.33;;;8.40;99.10;;;;;;5049737;28;20450;-46
2023/12/12 02:24:37;;;;;;;3.70;1.20;;;8.40;99.10;;;;;;5058615;28;20500;-47
2023/12/12 02:27:05;;;;;;;3.73;1.30;;;8.40;99.10;;;;;;5051546;28;20443;-47
2023/12/12 02:29:34;;;;;;;2.50;0.83;;;8.40;99.10;;;;;;5059858;28;20477;-47
2023/12/12 02:32:05;;;;;;;2.90;1.30;;;8.40;99.10;;;;;;5054445;28;20445;-47
2023/12/12 02:34:33;;;;;;;4.00;1.10;;;8.40;99.10;;;;;;5053746;28;20829;-47
2023/12/12 02:37:04;;;;;;;3.47;1.00;;;8.50;99.10;;;;;;5056833;28;20516;-48
2023/12/12 02:39:33;;;;;;;2.57;1.17;;;8.40;99.00;;;;;;5051207;28;20805;-46
2023/12/12 02:42:01;;;;;;;2.90;1.90;;;8.40;99.00;;;;;;5051465;28;20489;-46
2023/12/12 02:44:29;;;;;;;2.40;1.27;;;8.40;99.00;;;;;;5048957;28;20460;-45
2023/12/12 02:46:57;;;;;;;2.87;1.30;;;8.40;99.10;;;;;;5055710;28;20507;-47
2023/12/12 02:49:25;;;;;;;3.20;1.27;;;8.40;99.10;;;;;;5052584;28;20471;-47
2023/12/12 02:51:54;;;;;;;2.13;1.10;;;8.40;99.10;;;;;;5048584;28;20678;-47
2023/12/12 02:54:22;;;;;;;4.83;1.30;;;8.40;99.10;;;;;;5051918;28;20485;-46
2023/12/12 02:56:51;;;;;;;4.47;1.40;;;8.40;99.20;;;;;;5052474;28;20565;-46
2023/12/12 02:59:22;;;;;;;2.97;1.33;;;8.40;99.20;;;;;;5055692;28;20557;-46
2023/12/12 03:01:50;;;;;;;2.87;1.20;;;8.40;99.10;;;;;;5056125;28;20520;-47
2023/12/12 03:04:18;;;;;;;2.33;1.23;;;8.40;99.10;;;;;;5055419;28;20536;-47
2023/12/12 03:06:47;;;;;;;2.60;2.23;;;8.40;99.20;;;;;;5056242;28;20426;-47
2023/12/12 03:09:15;;;;;;;2.30;1.02;;;8.40;99.20;;;;;;5053483;28;20567;-46
2023/12/12 03:11:43;;;;;;;2.20;1.00;;;8.40;99.20;;;;;;5054488;28;20604;-47
2023/12/12 03:14:16;;;;;;;2.97;1.20;;;8.40;99.20;;;;;;5052567;28;20496;-48
2023/12/12 03:16:44;;;;;;;3.50;1.67;;;8.40;99.20;;;;;;5052778;28;20692;-47
2023/12/12 03:19:12;;;;;;;1.85;0.93;;;8.40;99.30;;;;;;5051572;28;20505;-48
2023/12/12 03:21:40;;;;;;;3.20;1.20;;;8.40;99.30;;;;;;5048813;28;20220;-46
2023/12/12 03:24:08;;;;;;;3.80;1.30;;;8.40;99.20;;;;;;5053030;28;20505;-47
2023/12/12 03:26:36;;;;;;;4.33;1.77;;;8.40;99.20;;;;;;5057375;28;20205;-46
2023/12/12 03:29:04;;;;;;;2.83;1.53;;;8.40;99.20;;;;;;5048426;28;20848;-46
2023/12/12 03:31:33;;;;;;;2.05;0.90;;;8.40;99.20;;;;;;5058894;28;20522;-47
2023/12/12 03:34:02;;;;;;;2.90;1.67;;;8.40;99.20;;;;;;5048356;28;20281;-47
2023/12/12 03:36:30;;;;;;;3.63;1.10;;;8.40;99.30;;;;;;5048932;28;20471;-47
2023/12/12 03:38:58;;;;;;;2.87;1.50;;;8.40;99.40;;;;;;5048227;28;20584;-46
2023/12/12 03:41:26;;;;;;;3.00;1.43;;;8.40;99.20;;;;;;5047778;28;20432;-45
2023/12/12 03:43:54;;;;;;;3.50;1.47;;;8.40;99.40;;;;;;5051662;28;20469;-47
2023/12/12 03:46:22;;;;;;;3.17;1.10;;;8.40;99.30;;;;;;5051800;28;20480;-45
2023/12/12 03:48:52;;;;;;;4.10;0.87;;;8.40;99.20;;;;;;5058676;28;20231;-46
2023/12/12 03:51:20;;;;;;;1.97;1.00;;;8.40;99.20;;;;;;5051472;28;20447;-47
2023/12/12 03:53:48;;;;;;;2.33;1.23;;;8.40;99.20;;;;;;5051647;28;20491;-46
2023/12/12 03:56:16;;;;;;;5.67;1.33;;;8.40;99.30;;;;;;5052423;28;20474;-47
2023/12/12 03:58:45;;;;;;;2.47;1.30;;;8.40;99.20;;;;;;5053176;28;20461;-45
2023/12/12 04:01:13;;;;;;;2.30;1.47;;;8.40;99.20;;;;;;5055327;28;20455;-47
2023/12/12 04:03:41;;;;;;;2.17;1.17;;;8.40;99.20;;;;;;5050531;28;20463;-45
2023/12/12 04:06:11;;;;;;;5.80;1.80;;;8.40;99.20;;;;;;5055219;28;20438;-45
2023/12/12 04:08:39;;;;;;;3.33;1.42;;;8.40;99.30;;;;;;5055910;28;21009;-46
2023/12/12 04:11:07;;;;;;;3.53;1.20;;;8.40;99.20;;;;;;5054796;28;20197;-45
2023/12/12 04:13:35;;;;;;;2.13;0.93;;;8.40;99.30;;;;;;5059381;28;20500;-45
2023/12/12 04:16:06;;;;;;;4.40;1.27;;;8.40;99.20;;;;;;5052763;28;20467;-46
2023/12/12 04:18:34;;;;;;;2.70;0.80;;;8.40;99.20;;;;;;5055187;28;20461;-45
2023/12/12 04:21:02;;;;;;;2.43;1.17;;;8.40;99.30;;;;;;5055684;28;20457;-47
2023/12/12 04:23:31;;;;;;;5.65;1.55;;;8.40;99.30;;;;;;5054893;28;20462;-46
2023/12/12 04:26:00;;;;;;;2.10;1.10;;;8.40;99.20;;;;;;5055373;28;20255;-45
2023/12/12 04:28:28;;;;;;;2.80;1.00;;;8.40;99.30;;;;;;5056317;28;20560;-46
2023/12/12 04:30:56;;;;;;;3.40;1.30;;;8.40;99.30;;;;;;5052118;28;20434;-47
2023/12/12 04:33:24;;;;;;;9.63;2.13;;;8.40;99.40;;;;;;5057380;28;20427;-47
2023/12/12 04:35:52;;;;;;;1.83;1.27;;;8.40;99.50;;;;;;5055797;28;20526;-46
2023/12/12 04:38:20;;;;;;;6.45;1.98;;;8.40;99.40;;;;;;5058888;28;20442;-47
2023/12/12 04:40:49;;;;;;;6.60;1.80;;;8.40;99.50;;;;;;5053776;28;20197;-46
2023/12/12 04:43:17;;;;;;;2.10;1.30;;;8.40;99.40;;;;;;5049652;28;20461;-46
2023/12/12 04:45:45;;;;;;;3.38;1.20;;;8.40;99.40;;;;;;5053646;28;20442;-47
2023/12/12 04:48:13;;;;;;;4.00;1.30;;;8.40;99.50;;;;;;5055587;28;20217;-46
2023/12/12 04:50:42;;;;;;;4.10;1.23;;;8.40;99.40;;;;;;5055421;28;20462;-46
2023/12/12 04:53:10;;;;;;;5.13;1.93;;;8.40;99.50;;;;;;5052929;28;20426;-46
2023/12/12 04:55:38;;;;;;;3.35;1.45;;;8.40;99.60;;;;;;5050788;28;20493;-44
2023/12/12 04:58:08;;;;;;;2.40;1.30;;;8.40;99.50;;;;;;5052624;28;20562;-46
2023/12/12 05:00:36;;;;;;;3.60;1.60;;;8.40;99.40;;;;;;5059511;28;20459;-47
2023/12/12 05:03:04;;;;;;;4.70;1.73;;;8.40;99.40;;;;;;5051619;28;20431;-45
2023/12/12 05:05:32;;;;;;;5.20;1.50;;;8.40;99.40;;;;;;5053658;28;20490;-45
2023/12/12 05:08:03;;;;;;;3.30;1.50;;;8.40;99.40;;;;;;5054647;28;20506;-46
2023/12/12 05:10:31;;;;;;;6.10;1.47;;;8.40;99.60;;;;;;5054284;28;20531;-44
2023/12/12 05:13:00;;;;;;;3.28;1.35;;;8.40;99.50;;;;;;5059902;28;20450;-47
2023/12/12 05:15:30;;;;;;;2.60;1.00;;;8.40;99.40;;;;;;5059606;28;20232;-47
2023/12/12 05:17:58;;;;;;;1.67;0.97;;;8.40;99.40;;;;;;5051114;28;20887;-47
2023/12/12 05:20:26;;;;;;;4.93;1.23;;;8.40;99.50;;;;;;5049997;28;20573;-45
2023/12/12 05:22:54;;;;;;;6.00;1.70;;;8.40;99.90;;;;;;5053459;28;20438;-44
2023/12/12 05:25:22;;;;;;;4.00;1.60;;;8.40;99.50;;;;;;5052702;28;20474;-45
2023/12/12 05:27:53;;;;;;;4.45;1.30;;;8.40;99.50;;;;;;5052849;28;20707;-47
2023/12/12 05:30:21;;;;;;;2.47;1.35;;;8.40;99.50;;;;;;5053788;28;20247;-47
2023/12/12 05:32:52;;;;;;;3.60;1.52;;;8.40;99.50;;;;;;5048867;28;20200;-47
2023/12/12 05:35:20;;;;;;;1.70;1.00;;;8.40;99.40;;;;;;5056811;28;20299;-48
2023/12/12 05:37:48;;;;;;;2.97;1.47;;;8.40;99.30;;;;;;5054335;28;20500;-45
2023/12/12 05:40:16;;;;;;;4.50;1.20;;;8.40;99.40;;;;;;5050102;28;20462;-45
2023/12/12 05:42:45;;;;;;;2.67;1.27;;;8.40;99.30;;;;;;5049974;28;20446;-47
2023/12/12 05:45:13;;;;;;;3.38;1.40;;;8.40;99.20;;;;;;5053884;28;20467;-47
2023/12/12 05:47:42;;;;;;;1.90;1.05;;;8.40;99.30;;;;;;5054076;28;20196;-46
2023/12/12 05:50:12;;;;;;;2.90;0.95;;;8.40;99.20;;;;;;5055524;28;20237;-45
2023/12/12 05:52:40;;;;;;;2.92;0.98;;;8.40;99.30;;;;;;5057383;28;20201;-46
2023/12/12 05:55:09;;;;;;;4.07;2.20;;;8.40;99.30;;;;;;5059745;28;20732;-47
2023/12/12 05:57:37;;;;;;;3.50;1.55;;;8.40;99.30;;;;;;5055069;28;20459;-47
2023/12/12 06:00:08;;;;;;;2.37;1.23;;;8.40;99.30;;;;;;5055798;28;20227;-47
2023/12/12 06:02:42;;;;;;;2.60;1.30;;;8.40;99.30;;;;;;5057486;28;20442;-46
2023/12/12 06:05:12;;;;;;;2.30;1.40;;;8.40;99.30;;;;;;5055169;28;21166;-46
2023/12/12 06:07:41;;;;;;;5.13;1.87;;;8.40;99.50;;;;;;5052868;28;20420;-46
2023/12/12 06:10:10;;;;;;;2.30;1.30;;;8.40;99.30;;;;;;5056230;28;21049;-47
2023/12/12 06:12:38;;;;;;;3.95;1.45;;;8.40;99.30;;;;;;5051654;28;20196;-47
2023/12/12 06:15:07;;;;;;;6.10;1.58;;;8.40;99.50;;;;;;5062794;28;20312;-45
2023/12/12 06:17:36;;;;;;;2.67;1.50;;;8.30;99.30;;;;;;5053199;28;20701;-46
2023/12/12 06:20:05;;;;;;;2.83;1.60;;;8.30;99.40;;;;;;5052498;28;20496;-47
2023/12/12 06:22:35;;;;;;;6.43;1.23;;;8.30;99.50;;;;;;5057908;28;20444;-46
2023/12/12 06:25:03;;;;;;;3.08;1.27;;;8.30;99.30;;;;;;5050193;28;20478;-46
2023/12/12 06:27:31;;;;;;;4.73;1.40;;;8.40;99.40;;;;;;5052327;28;20581;-46
2023/12/12 06:29:59;;;;;;;3.33;1.57;;;8.30;99.30;;;;;;5052394;28;20466;-44
2023/12/12 06:32:29;;;;;;;2.95;1.42;;;8.40;99.30;;;;;;5058378;28;20522;-44
2023/12/12 06:34:59;;;;;;;4.87;1.40;;;8.30;99.20;;;;;;5055117;28;20321;-45
2023/12/12 06:37:27;;;;;;;3.60;1.48;;;8.30;99.30;;;;;;5057997;28;20560;-46
2023/12/12 06:39:58;;;;;;;3.83;1.77;;;8.40;99.30;;;;;;5056970;28;20819;-45
2023/12/12 06:42:27;;;;;;;2.73;1.10;;;8.30;99.30;;;;;;5053789;28;20443;-46
2023/12/12 06:44:56;;;;;;;5.70;1.70;;;8.40;99.40;;;;;;5057114;28;20992;-46
2023/12/12 06:47:24;;;;;;;2.72;1.40;;;8.30;99.30;;;;;;5057848;28;20718;-45
2023/12/12 06:49:53;;;;;;;5.03;1.70;;;8.30;99.40;;;;;;5048887;28;20224;-48
2023/12/12 06:52:23;;;;;;;3.10;1.13;;;8.40;99.40;;;;;;5056173;28;20446;-46
2023/12/12 06:54:53;;;;;;;4.63;1.20;;;8.30;99.30;;;;;;5057331;28;20217;-46
2023/12/12 06:57:22;;;;;;;6.13;1.70;;;8.30;99.30;;;;;;5055175;28;20200;-47
2023/12/12 06:59:50;;;;;;;2.33;1.48;;;8.30;99.40;;;;;;5056640;28;20235;-46
2023/12/12 07:02:18;;;;;;;2.55;1.30;;;8.40;99.60;;;;;;5057444;28;20195;-47
2023/12/12 07:04:46;;;;;;;4.85;1.67;;;8.30;99.40;;;;;;5059542;28;20306;-47
2023/12/12 07:07:15;;;;;;;4.80;1.33;;;8.30;99.40;;;;;;5053510;28;20686;-47
2023/12/12 07:09:43;;;;;;;4.10;2.05;;;8.30;99.40;;;;;;5055670;28;21055;-47
2023/12/12 07:12:11;;;;;;;4.22;1.27;;;8.30;99.40;;;;;;5056761;28;20191;-47
2023/12/12 07:14:41;;;;;;;3.72;1.52;;;8.40;99.40;;;;;;5052764;28;20218;-46
2023/12/12 07:17:09;;;;;;;3.87;1.30;;;8.30;99.40;;;;;;5051971;28;20661;-47
2023/12/12 07:19:37;;;;;;;3.93;1.23;;;8.30;99.40;;;;;;5054572;28;20562;-45
2023/12/12 07:22:06;;;;;;;5.60;1.57;;;8.30;99.40;;;;;;5058940;28;20472;-45
2023/12/12 07:24:34;;;;;;;2.53;1.63;;;8.30;99.20;;;;;;5055124;28;20469;-45
2023/12/12 07:27:03;;;;;;;3.65;2.10;;;8.30;99.20;;;;;;5054952;28;20458;-46
2023/12/12 07:29:31;;;;;;;7.30;1.70;;;8.30;99.40;;;;;;5053111;28;20220;-45
2023/12/12 07:32:00;;;;;;;3.10;1.40;;;8.30;99.30;;;;;;5054868;28;20191;-44
2023/12/12 07:34:29;;;;;;;2.92;1.60;;;8.30;99.40;;;;;;5049497;28;20505;-47
2023/12/12 07:36:57;;;;;;;3.10;2.37;;;8.30;99.30;;;;;;5056391;28;20195;-47
2023/12/12 07:39:25;;;;;;;2.57;1.77;;;8.30;99.20;;;;;;5056328;28;20846;-45
2023/12/12 07:41:53;;;;;;;2.83;1.30;;;8.30;99.20;;;;;;5055209;28;20443;-46
2023/12/12 07:44:21;;;;;;;4.47;1.60;;;8.30;99.20;;;;;;5051952;28;20482;-45
2023/12/12 07:46:49;;;;;;;5.27;1.50;;;8.30;99.40;;;;;;5056120;28;20202;-45
2023/12/12 07:49:18;;;;;;;3.07;1.37;;;8.30;99.30;;;;;;5059073;28;20467;-47
2023/12/12 07:51:47;;;;;;;4.07;1.65;;;8.30;99.10;;;;;;5056618;28;20939;-46
2023/12/12 07:54:15;;;;;;;3.43;1.50;;;8.30;99.10;;;;;;5055787;28;20597;-45
2023/12/12 07:56:43;;;;;;;2.35;1.00;;;8.30;99.00;;;;;;5055776;28;20455;-46
2023/12/12 07:59:11;;;;;;;2.13;1.20;;;8.30;99.00;;;;;;5068005;28;20223;-46
2023/12/12 08:01:39;;;;;;;2.45;1.15;;;8.30;99.20;;;;;;5055242;28;20430;-47
2023/12/12 08:04:08;;;;;;;3.58;1.75;;;8.30;99.20;;;;;;5057964;28;20231;-46
2023/12/12 08:06:37;;;;;;;3.58;1.40;;;8.30;99.30;;;;;;5061050;28;20190;-47
2023/12/12 08:09:07;;;;;;;2.53;1.70;;;8.30;99.30;;;;;;5056846;28;20224;-45
2023/12/12 08:11:35;;;;;;;3.20;1.50;;;8.30;99.30;;;;;;5055980;28;21018;-47
2023/12/12 08:14:03;;;;;;;2.53;1.55;;;8.30;99.30;;;;;;5059009;28;20242;-47
2023/12/12 08:16:32;;;;;;;2.93;1.53;;;8.30;99.30;;;;;;5057274;28;20207;-47
2023/12/12 08:19:00;;;;;;;4.60;2.13;;;8.30;99.30;;;;;;5065637;28;20974;-46
2023/12/12 08:21:30;;;;;;;3.67;1.65;;;8.30;99.20;;;;;;5053808;28;20290;-45
2023/12/12 08:24:00;;;;;;;3.77;1.50;;;8.30;99.20;;;;;;5057148;28;20252;-45
2023/12/12 08:26:28;;;;;;;3.97;1.13;;;8.30;99.30;;;;;;5054254;28;20447;-46
2023/12/12 08:28:56;;;;;;;6.30;1.70;;;8.30;99.20;;;;;;5057675;28;20486;-47
2023/12/12 08:31:24;;;;;;;2.67;1.83;;;8.30;99.20;;;;;;5057225;28;20435;-46
2023/12/12 08:33:53;;;;;;;2.33;1.33;;;8.30;99.30;;;;;;5059053;28;20836;-46
2023/12/12 08:36:20;;;;;;;3.90;1.30;;;8.30;99.30;;;;;;5051267;28;20193;-47
2023/12/12 08:38:50;;;;;;;2.67;1.23;;;8.30;99.40;;;;;;5055903;28;20465;-45
2023/12/12 08:41:20;;;;;;;3.43;1.50;;;8.30;99.20;;;;;;5054440;28;20203;-46
2023/12/12 08:43:48;;;;;;;4.63;2.00;;;8.30;99.20;;;;;;5059705;28;20457;-45
2023/12/12 08:46:16;;;;;;;2.72;1.52;;;8.30;99.20;;;;;;5054064;28;20208;-46
2023/12/12 08:48:44;;;;;;;3.25;1.45;;;8.30;99.30;;;;;;5060672;28;20724;-46
2023/12/12 08:51:12;;;;;;;3.00;1.33;;;8.30;99.30;;;;;;5054755;28;20200;-47
2023/12/12 08:53:41;;;;;;;4.33;1.60;;;8.30;99.20;;;;;;5051741;28;20566;-46
2023/12/12 08:56:14;;;;;;;3.90;1.60;;;8.30;99.30;;;;;;5051065;28;20861;-47
2023/12/12 08:58:44;;;;;;;5.00;1.60;;;8.30;99.20;;;;;;5058066;28;20466;-45
2023/12/12 09:01:19;;;;;;;3.35;1.63;;;8.30;99.30;;;;;;5056113;28;20911;-47
2023/12/12 09:03:48;;;;;;;3.17;1.77;;;8.30;99.50;;;;;;5057517;28;20225;-47
2023/12/12 09:06:16;;;;;;;6.70;1.77;;;8.30;99.50;;;;;;5052028;28;20226;-46
2023/12/12 09:08:45;;;;;;;3.95;1.92;;;8.30;99.40;;;;;;5053633;28;20498;-46
2023/12/12 09:11:13;;;;;;;4.50;1.15;;;8.30;99.40;;;;;;5054084;28;20571;-47
2023/12/12 09:13:46;;;;;;;3.60;2.20;;;8.30;99.40;;;;;;5055084;28;20228;-45
2023/12/12 09:16:14;;;;;;;4.93;1.85;;;8.30;99.30;;;;;;5055914;28;20426;-47
2023/12/12 09:18:42;;;;;;;4.40;1.20;;;8.30;99.40;;;;;;5054175;28;20223;-47
2023/12/12 09:21:11;;;;;;;3.90;1.80;;;8.30;99.50;;;;;;5055826;28;20438;-46
2023/12/12 09:23:41;;;;;;;3.50;1.10;;;8.30;99.50;;;;;;5055465;28;20496;-47
2023/12/12 09:26:14;;;;;;;2.75;1.50;;;8.30;99.50;;;;;;5054514;28;20496;-47
2023/12/12 09:28:42;;;;;;;3.10;1.37;;;8.30;99.50;;;;;;5055476;28;20652;-46
2023/12/12 09:31:12;;;;;;;3.57;1.50;;;8.30;99.60;;;;;;5053336;28;20427;-46
2023/12/12 09:33:40;;;;;;;3.13;1.50;;;8.30;99.50;;;;;;5056823;28;20560;-46
2023/12/12 09:36:10;;;;;;;3.57;1.20;;;8.30;99.60;;;;;;5058619;28;20442;-46
2023/12/12 09:38:38;;;;;;;4.90;1.50;;;8.30;99.60;;;;;;5050733;28;20488;-46
2023/12/12 09:41:07;;;;;;;3.17;1.50;;;8.30;99.50;;;;;;5053432;28;20906;-46
2023/12/12 09:43:37;;;;;;;2.73;1.70;;;8.30;99.60;;;;;;5059230;28;20199;-45
2023/12/12 09:46:08;;;;;;;3.23;1.23;;;8.30;99.60;;;;;;5052796;28;20940;-46
2023/12/12 09:48:38;;;;;;;2.42;1.70;;;8.30;99.70;;;;;;5050332;28;20546;-46
2023/12/12 09:51:10;;;;;;;3.70;1.40;;;8.30;99.50;;;;;;5055386;28;20185;-46
2023/12/12 09:53:40;;;;;;;3.00;1.23;;;8.30;99.50;;;;;;5055649;28;20591;-46
2023/12/12 09:56:14;;;;;;;3.88;1.30;;;8.30;99.40;;;;;;5054723;28;20423;-46
2023/12/12 09:58:43;;;;;;;3.17;1.83;;;8.30;99.50;;;;;;5060181;28;20290;-46
2023/12/12 10:01:12;;;;;;;6.60;2.17;;;8.30;99.60;;;;;;5053463;28;20554;-45
2023/12/12 10:03:43;;;;;;;4.68;1.70;;;8.30;99.40;;;;;;5054226;28;20246;-47
2023/12/12 10:06:14;;;;;;;4.33;1.50;;;8.30;99.40;;;;;;5054755;28;20218;-46
2023/12/12 10:08:42;;;;;;;3.17;1.58;;;8.30;99.40;;;;;;5052706;28;20482;-46
2023/12/12 10:11:14;;;;;;;3.50;1.70;;;8.30;99.60;;;;;;5055000;28;20184;-45
2023/12/12 10:13:54;;;;;;;3.03;1.60;;;8.30;99.60;;;;;;5054414;28;20473;-46
2023/12/12 10:16:22;;;;;;;7.17;2.07;;;8.30;99.70;;;;;;5053961;28;20199;-45
2023/12/12 10:18:52;;;;;;;3.70;1.95;;;8.30;99.80;;;;;;5054448;28;20474;-46
2023/12/12 10:21:21;;;;;;;6.38;1.40;;;8.30;99.80;;;;;;5052199;28;20350;-45
2023/12/12 10:23:51;;;;;;;2.97;1.40;;;8.30;99.70;;;;;;5053458;28;20220;-45
2023/12/12 10:26:24;;;;;;;4.80;1.90;;;8.30;99.50;;;;;;5058158;28;20442;-46
2023/12/12 10:28:55;;;;;;;4.63;1.80;;;8.30;99.60;;;;;;5053374;28;20566;-46
2023/12/12 10:31:24;;;;;;;3.22;1.65;;;8.30;99.60;;;;;;5049499;28;20428;-46
2023/12/12 10:33:55;;;;;;;5.30;2.08;;;8.30;99.70;;;;;;5054227;28;20216;-46
2023/12/12 10:36:24;;;;;;;3.03;1.83;;;8.30;99.90;;;;;;5048995;28;20734;-46
2023/12/12 10:38:54;;;;;;;3.40;1.50;;;8.30;99.70;;;;;;5056073;28;20498;-47
2023/12/12 10:41:23;;;;;;;3.23;1.30;;;8.30;99.90;;;;;;5050618;28;20239;-47
2023/12/12 10:43:56;;;;;;;5.60;1.67;;;8.30;99.90;;;;;;5055940;28;20470;-46
2023/12/12 10:46:26;;;;;;;3.53;1.50;;;8.30;99.90;;;;;;5051588;28;20473;-46
2023/12/12 10:49:00;;;;;;;4.53;2.60;;;8.30;99.90;;;;;;5054501;28;20736;-47
2023/12/12 10:51:30;;;;;;;3.88;1.50;;;8.30;99.90;;;;;;5051228;28;20201;-45
2023/12/12 10:53:59;;;;;;;3.75;1.50;;;8.30;99.90;;;;;;5052322;28;20290;-47
2023/12/12 10:56:35;;;;;;;1.85;1.08;;;8.30;99.90;;;;;;5054802;28;20217;-47
2023/12/12 10:59:04;;;;;;;3.90;1.80;;;8.30;99.90;;;;;;5053856;28;20227;-46
2023/12/12 11:01:53;;;;;;;5.90;2.00;;;8.30;99.90;;;;;;5051175;28;20590;-45
2023/12/12 11:04:27;;;;;;;2.03;1.40;;;8.30;99.90;;;;;;5061266;28;20518;-46
2023/12/12 11:06:57;;;;;;;2.07;1.37;;;8.30;99.90;;;;;;5054085;28;20531;-47
2023/12/12 11:09:25;;;;;;;3.55;1.52;;;8.30;99.90;;;;;;5052246;28;20534;-44
2023/12/12 11:11:55;;;;;;;4.13;1.90;;;8.30;99.90;;;;;;5057152;28;20250;-47
2023/12/12 11:14:25;;;;;;;2.50;1.57;;;8.30;99.90;;;;;;5055087;28;20276;-47
2023/12/12 11:16:58;;;;;;;4.37;1.80;;;8.30;99.90;;;;;;5052635;28;20426;-46
2023/12/12 11:19:28;;;;;;;3.85;1.27;;;8.30;99.90;;;;;;5047461;28;21442;-47
2023/12/12 11:21:56;;;;;;;3.88;1.60;;;8.30;99.90;;;;;;5048966;28;20230;-46
2023/12/12 11:25:00;;;;;;;7.70;2.03;;;8.30;99.90;;;;;;5051897;28;20220;-47
2023/12/12 11:27:29;;;;;;;3.25;1.63;;;8.40;99.90;;;;;;5050783;28;20218;-46
2023/12/12 11:30:00;;;;;;;3.50;2.47;;;8.30;99.90;;;;;;5054257;28;20307;-46
2023/12/12 11:32:28;;;;;;;3.67;1.50;;;8.30;99.90;;;;;;5052586;28;20539;-47
2023/12/12 11:34:58;;;;;;;2.75;1.65;;;8.40;99.90;;;;;;5053679;28;20467;-46
2023/12/12 11:37:40;;;;;;;3.97;1.77;;;8.30;99.80;;;;;;5058917;28;20196;-46
2023/12/12 11:40:10;;;;;;;2.97;1.48;;;8.30;99.80;;;;;;5054954;28;20766;-45
2023/12/12 11:42:38;;;;;;;1.90;1.38;;;8.30;99.70;;;;;;5047553;28;20689;-46
2023/12/12 11:45:07;;;;;;;5.50;1.70;;;8.30;99.70;;;;;;5054483;28;20216;-46
2023/12/12 11:47:36;;;;;;;3.00;1.57;;;8.30;99.80;;;;;;5053843;28;20895;-47
2023/12/12 11:50:41;;;;;;;2.83;1.67;;;8.30;99.70;;;;;;5050264;28;20470;-46
2023/12/12 11:53:11;;;;;;;6.43;2.35;;;8.30;99.70;;;;;;5047382;28;20234;-46
2023/12/12 11:55:42;;;;;;;4.87;2.70;;;8.40;99.90;;;;;;5049600;28;20465;-45
2023/12/12 11:58:12;;;;;;;5.50;2.00;;;8.50;99.90;;;;;;5055537;28;20474;-46
2023/12/12 12:00:43;;;;;;;4.70;2.07;;;8.60;99.90;;;;;;5051928;28;20223;-46
2023/12/12 12:03:11;;;;;;;6.03;2.60;;;8.60;99.90;;;;;;5054634;28;20940;-44
2023/12/12 12:05:39;;;;;;;4.43;1.98;;;8.70;99.90;;;;;;5049000;28;20222;-46
2023/12/12 12:08:09;;;;;;;3.15;2.30;;;8.60;99.90;;;;;;5048852;28;20235;-46
2023/12/12 12:10:38;;;;;;;4.78;1.83;;;8.60;99.90;;;;;;5052037;28;20646;-46
2023/12/12 12:13:06;;;;;;;3.70;1.80;;;8.60;99.90;;;;;;5053775;28;20194;-44
2023/12/12 12:15:34;;;;;;;3.67;2.63;;;8.60;99.90;;;;;;5050122;28;20541;-46
2023/12/12 12:18:02;;;;;;;3.28;1.90;;;8.60;99.90;;;;;;5052861;28;20431;-44
2023/12/12 12:20:45;;;;;;;3.22;2.35;;;8.60;99.90;;;;;;5054936;28;20712;-46
2023/12/12 12:23:13;;;;;;;5.05;2.13;;;8.50;99.90;;;;;;5047869;28;20727;-47
2023/12/12 12:25:43;;;;;;;3.00;2.00;;;8.50;99.90;;;;;;5051757;28;20223;-45
2023/12/12 12:28:11;;;;;;;4.90;2.58;;;8.50;99.90;;;;;;5049751;28;20481;-44
2023/12/12 12:30:45;;;;;;;5.93;2.23;;;8.50;99.90;;;;;;5049500;28;20217;-45
2023/12/12 12:33:15;;;;;;;3.60;1.90;;;8.50;99.90;;;;;;5051379;28;20434;-46
2023/12/12 12:35:51;;;;;;;3.27;2.10;;;8.50;99.90;;;;;;5054732;28;20466;-46
2023/12/12 12:38:26;;;;;;;3.03;1.80;;;8.50;99.90;;;;;;5057982;28;20458;-44
2023/12/12 12:40:56;;;;;;;5.50;1.87;;;8.50;99.90;;;;;;5055539;28;20772;-45
2023/12/12 12:43:24;;;;;;;2.10;1.27;;;8.50;99.90;;;;;;5050019;28;20803;-44
2023/12/12 12:45:53;;;;;;;2.77;1.77;;;8.50;99.90;;;;;;5053588;28;20435;-44
2023/12/12 12:48:22;;;;;;;5.60;1.73;;;8.50;99.90;;;;;;5055530;28;20829;-45
2023/12/12 12:50:51;;;;;;;3.53;2.27;;;8.50;99.90;;;;;;5051564;28;20836;-44
2023/12/12 12:53:19;;;;;;;3.03;2.27;;;8.50;99.90;;;;;;5055220;28;20446;-45
2023/12/12 12:55:47;;;;;;;2.97;1.60;;;8.60;99.90;;;;;;5051187;28;20466;-47
2023/12/12 12:58:17;;;;;;;2.97;1.60;;;8.50;99.90;;;;;;5054687;28;20577;-44
2023/12/12 13:00:46;;;;;;;3.28;1.70;;;8.60;99.90;;;;;;5055692;28;20466;-45
2023/12/12 13:03:14;;;;;;;3.20;1.83;;;8.60;99.90;;;;;;5056027;28;20214;-45
2023/12/12 13:05:43;;;;;;;2.27;1.60;;;8.60;99.90;;;;;;5051890;28;20575;-46
2023/12/12 13:08:11;;;;;;;4.03;1.57;;;8.60;99.90;;;;;;5052040;28;20628;-45